Cox, Texas
Current Conditions -  °F | °C
As of 3:35 PM on Saturday 25 Oct 2014 (Local Time) from KOSA Reporting Station
Clear Clear  
Wind Chill: 85°   Ceiling: Unl
Heat Index: 85°   Visibility: 10mi
Dew Point: 61°   Wind: 6mph
Humidity: 44%   Direction: 250°WSW
Pressure: 30.09"   Gusts: NA
Location:  32.7353°N, 94.9492°W
Report Text: KOSA 252035Z AUTO 25005KT 10SM CLR 30/16 A3009 RMK AO1 T02950160
Loading
Personal Weather Stations






























Interactive Weather Map
Tropical Storm Tracking
New forecast layout! Learn more

10-Day Weather Forecast

Advertisements
Track Severe Weather on mobile